Smithville, Arkansas
Current Conditions -  °F | °C
As of 5:35 PM on Monday 22 Dec 2014 (Local Time) from KARG Reporting Station
Overcast Overcast  
Wind Chill: 12°   Ceiling: 800
Heat Index: 12°   Visibility: 5mi
Dew Point:   Wind: 9mph
Humidity: 82%   Direction: 190°S
Pressure: 29.58"   Gusts: NA
Location:  36.08°N, 91.3°W
Report Text: KARG 222335Z AUTO 19008KT 5SM OVC008 12/09 A2958 RMK AO1
Loading
Personal Weather Stations






























Interactive Weather Map New forecast layout! Learn more

10-Day Weather Forecast

Advertisements
Track Severe Weather on mobile